sensor_id;sensor_type;location;lat;lon;timestamp;P1;durP1;ratioP1;P2;durP2;ratioP2
73693;SDS011;61997;53.974;11.670;2023-04-03T00:02:11;12.82;;;5.65;;
73693;SDS011;61997;53.974;11.670;2023-04-03T00:04:36;9.93;;;4.97;;
73693;SDS011;61997;53.974;11.670;2023-04-03T00:07:01;9.77;;;4.75;;
73693;SDS011;61997;53.974;11.670;2023-04-03T00:09:27;11.73;;;5.07;;
73693;SDS011;61997;53.974;11.670;2023-04-03T00:11:52;9.68;;;4.60;;
73693;SDS011;61997;53.974;11.670;2023-04-03T00:14:18;9.50;;;5.05;;
73693;SDS011;61997;53.974;11.670;2023-04-03T00:16:43;7.55;;;5.00;;
73693;SDS011;61997;53.974;11.670;2023-04-03T00:19:08;11.35;;;5.05;;
73693;SDS011;61997;53.974;11.670;2023-04-03T00:21:36;9.45;;;5.25;;
73693;SDS011;61997;53.974;11.670;2023-04-03T00:24:02;8.70;;;5.55;;
73693;SDS011;61997;53.974;11.670;2023-04-03T00:26:27;9.70;;;5.75;;
73693;SDS011;61997;53.974;11.670;2023-04-03T00:28:53;10.77;;;5.25;;
73693;SDS011;61997;53.974;11.670;2023-04-03T00:31:18;9.25;;;4.72;;
73693;SDS011;61997;53.974;11.670;2023-04-03T00:33:43;8.23;;;4.95;;
73693;SDS011;61997;53.974;11.670;2023-04-03T00:36:09;8.50;;;4.88;;
73693;SDS011;61997;53.974;11.670;2023-04-03T00:38:35;9.57;;;5.57;;
73693;SDS011;61997;53.974;11.670;2023-04-03T00:41:01;9.90;;;5.40;;
73693;SDS011;61997;53.974;11.670;2023-04-03T00:43:26;7.88;;;4.88;;
73693;SDS011;61997;53.974;11.670;2023-04-03T00:45:53;8.15;;;4.60;;
73693;SDS011;61997;53.974;11.670;2023-04-03T00:48:20;7.97;;;4.68;;
73693;SDS011;61997;53.974;11.670;2023-04-03T00:50:49;8.65;;;5.00;;
73693;SDS011;61997;53.974;11.670;2023-04-03T00:53:17;7.95;;;4.72;;
73693;SDS011;61997;53.974;11.670;2023-04-03T00:55:44;9.25;;;4.40;;
73693;SDS011;61997;53.974;11.670;2023-04-03T00:58:12;8.77;;;4.55;;
73693;SDS011;61997;53.974;11.670;2023-04-03T01:00:38;9.77;;;5.25;;
73693;SDS011;61997;53.974;11.670;2023-04-03T01:03:05;9.25;;;5.32;;
73693;SDS011;61997;53.974;11.670;2023-04-03T01:05:31;6.88;;;4.63;;
73693;SDS011;61997;53.974;11.670;2023-04-03T01:07:56;9.25;;;4.78;;
73693;SDS011;61997;53.974;11.670;2023-04-03T01:10:22;10.05;;;4.50;;
73693;SDS011;61997;53.974;11.670;2023-04-03T01:12:49;7.97;;;4.72;;
73693;SDS011;61997;53.974;11.670;2023-04-03T01:15:17;7.88;;;4.82;;
73693;SDS011;61997;53.974;11.670;2023-04-03T01:17:48;6.88;;;4.45;;
73693;SDS011;61997;53.974;11.670;2023-04-03T01:28:14;7.85;;;4.15;;
73693;SDS011;61997;53.974;11.670;2023-04-03T01:30:43;7.72;;;4.32;;
73693;SDS011;61997;53.974;11.670;2023-04-03T01:33:11;7.10;;;4.22;;
73693;SDS011;61997;53.974;11.670;2023-04-03T01:35:37;6.88;;;4.55;;
73693;SDS011;61997;53.974;11.670;2023-04-03T01:38:02;7.75;;;4.35;;
73693;SDS011;61997;53.974;11.670;2023-04-03T01:40:28;8.73;;;4.30;;
73693;SDS011;61997;53.974;11.670;2023-04-03T01:42:53;6.85;;;3.97;;
73693;SDS011;61997;53.974;11.670;2023-04-03T01:45:18;7.32;;;4.00;;
73693;SDS011;61997;53.974;11.670;2023-04-03T01:47:44;7.13;;;4.40;;
73693;SDS011;61997;53.974;11.670;2023-04-03T01:50:09;6.47;;;4.30;;
73693;SDS011;61997;53.974;11.670;2023-04-03T01:52:35;7.90;;;4.55;;
73693;SDS011;61997;53.974;11.670;2023-04-03T01:55:00;7.53;;;3.78;;
73693;SDS011;61997;53.974;11.670;2023-04-03T01:57:25;6.35;;;3.72;;
73693;SDS011;61997;53.974;11.670;2023-04-03T01:59:51;7.53;;;4.00;;
73693;SDS011;61997;53.974;11.670;2023-04-03T02:02:16;5.15;;;3.35;;
73693;SDS011;61997;53.974;11.670;2023-04-03T02:04:41;6.07;;;3.80;;
73693;SDS011;61997;53.974;11.670;2023-04-03T02:07:07;6.57;;;3.88;;
73693;SDS011;61997;53.974;11.670;2023-04-03T02:09:32;7.13;;;4.03;;
73693;SDS011;61997;53.974;11.670;2023-04-03T02:11:58;6.03;;;3.60;;
73693;SDS011;61997;53.974;11.670;2023-04-03T02:14:23;7.35;;;4.03;;
73693;SDS011;61997;53.974;11.670;2023-04-03T02:16:49;6.13;;;3.92;;
73693;SDS011;61997;53.974;11.670;2023-04-03T02:19:14;6.85;;;4.03;;
73693;SDS011;61997;53.974;11.670;2023-04-03T02:21:40;6.90;;;3.35;;
73693;SDS011;61997;53.974;11.670;2023-04-03T02:24:05;6.50;;;3.75;;
73693;SDS011;61997;53.974;11.670;2023-04-03T02:26:31;8.77;;;4.25;;
73693;SDS011;61997;53.974;11.670;2023-04-03T02:28:56;7.20;;;3.80;;
73693;SDS011;61997;53.974;11.670;2023-04-03T02:31:22;4.68;;;3.13;;
73693;SDS011;61997;53.974;11.670;2023-04-03T02:33:48;5.57;;;3.20;;
73693;SDS011;61997;53.974;11.670;2023-04-03T02:36:14;5.45;;;3.90;;
73693;SDS011;61997;53.974;11.670;2023-04-03T02:38:39;5.60;;;3.25;;
73693;SDS011;61997;53.974;11.670;2023-04-03T02:41:06;6.40;;;3.65;;
73693;SDS011;61997;53.974;11.670;2023-04-03T02:43:33;5.78;;;3.30;;
73693;SDS011;61997;53.974;11.670;2023-04-03T02:45:58;4.63;;;3.10;;
73693;SDS011;61997;53.974;11.670;2023-04-03T02:48:24;5.45;;;3.22;;
73693;SDS011;61997;53.974;11.670;2023-04-03T02:50:50;6.38;;;3.30;;
73693;SDS011;61997;53.974;11.670;2023-04-03T02:53:15;5.75;;;3.00;;
73693;SDS011;61997;53.974;11.670;2023-04-03T02:55:41;4.95;;;3.08;;
73693;SDS011;61997;53.974;11.670;2023-04-03T02:58:06;3.70;;;2.75;;
73693;SDS011;61997;53.974;11.670;2023-04-03T03:00:32;4.57;;;2.80;;
73693;SDS011;61997;53.974;11.670;2023-04-03T03:02:58;5.57;;;3.00;;
73693;SDS011;61997;53.974;11.670;2023-04-03T03:05:23;4.72;;;3.00;;
73693;SDS011;61997;53.974;11.670;2023-04-03T03:07:48;4.65;;;2.85;;
73693;SDS011;61997;53.974;11.670;2023-04-03T03:10:14;5.13;;;2.90;;
73693;SDS011;61997;53.974;11.670;2023-04-03T03:12:39;4.85;;;3.13;;
73693;SDS011;61997;53.974;11.670;2023-04-03T03:15:05;4.82;;;2.78;;
73693;SDS011;61997;53.974;11.670;2023-04-03T03:17:31;5.28;;;3.00;;
73693;SDS011;61997;53.974;11.670;2023-04-03T03:19:56;4.18;;;2.65;;
73693;SDS011;61997;53.974;11.670;2023-04-03T03:22:22;4.15;;;2.58;;
73693;SDS011;61997;53.974;11.670;2023-04-03T03:24:47;4.35;;;2.30;;
73693;SDS011;61997;53.974;11.670;2023-04-03T03:27:13;3.75;;;2.20;;
73693;SDS011;61997;53.974;11.670;2023-04-03T03:29:38;4.40;;;2.88;;
73693;SDS011;61997;53.974;11.670;2023-04-03T03:32:03;4.10;;;2.33;;
73693;SDS011;61997;53.974;11.670;2023-04-03T03:34:29;4.35;;;2.28;;
73693;SDS011;61997;53.974;11.670;2023-04-03T03:36:54;4.90;;;2.30;;
73693;SDS011;61997;53.974;11.670;2023-04-03T03:39:20;5.22;;;2.40;;
73693;SDS011;61997;53.974;11.670;2023-04-03T03:41:46;5.57;;;3.10;;
73693;SDS011;61997;53.974;11.670;2023-04-03T03:44:11;5.18;;;2.58;;
73693;SDS011;61997;53.974;11.670;2023-04-03T03:46:36;4.05;;;2.30;;
73693;SDS011;61997;53.974;11.670;2023-04-03T03:49:02;5.72;;;2.60;;
73693;SDS011;61997;53.974;11.670;2023-04-03T03:51:27;4.80;;;2.42;;
73693;SDS011;61997;53.974;11.670;2023-04-03T03:53:53;4.90;;;2.40;;
73693;SDS011;61997;53.974;11.670;2023-04-03T03:56:18;4.18;;;2.47;;
73693;SDS011;61997;53.974;11.670;2023-04-03T03:58:43;4.80;;;2.40;;
73693;SDS011;61997;53.974;11.670;2023-04-03T04:01:09;3.47;;;1.92;;
73693;SDS011;61997;53.974;11.670;2023-04-03T04:03:34;4.60;;;2.50;;
73693;SDS011;61997;53.974;11.670;2023-04-03T04:06:00;4.03;;;2.13;;
73693;SDS011;61997;53.974;11.670;2023-04-03T04:08:25;3.17;;;2.35;;
73693;SDS011;61997;53.974;11.670;2023-04-03T04:10:51;3.42;;;2.30;;
73693;SDS011;61997;53.974;11.670;2023-04-03T04:13:16;3.72;;;2.00;;
73693;SDS011;61997;53.974;11.670;2023-04-03T04:15:42;3.72;;;2.00;;
73693;SDS011;61997;53.974;11.670;2023-04-03T04:18:08;5.55;;;2.28;;
73693;SDS011;61997;53.974;11.670;2023-04-03T04:20:33;3.85;;;1.67;;
73693;SDS011;61997;53.974;11.670;2023-04-03T04:22:59;4.05;;;1.98;;
73693;SDS011;61997;53.974;11.670;2023-04-03T04:25:24;3.22;;;1.90;;
73693;SDS011;61997;53.974;11.670;2023-04-03T04:27:50;3.65;;;2.10;;
73693;SDS011;61997;53.974;11.670;2023-04-03T04:30:15;3.83;;;2.00;;
73693;SDS011;61997;53.974;11.670;2023-04-03T04:32:41;4.93;;;2.45;;
73693;SDS011;61997;53.974;11.670;2023-04-03T04:35:06;3.92;;;1.90;;
73693;SDS011;61997;53.974;11.670;2023-04-03T04:37:32;3.10;;;1.60;;
73693;SDS011;61997;53.974;11.670;2023-04-03T04:39:57;3.45;;;1.95;;
73693;SDS011;61997;53.974;11.670;2023-04-03T04:42:23;1.92;;;1.60;;
73693;SDS011;61997;53.974;11.670;2023-04-03T04:44:49;4.78;;;1.80;;
73693;SDS011;61997;53.974;11.670;2023-04-03T04:47:15;3.58;;;1.92;;
73693;SDS011;61997;53.974;11.670;2023-04-03T04:49:40;4.53;;;1.92;;
73693;SDS011;61997;53.974;11.670;2023-04-03T04:52:06;2.80;;;1.88;;
73693;SDS011;61997;53.974;11.670;2023-04-03T04:54:31;3.20;;;2.00;;
73693;SDS011;61997;53.974;11.670;2023-04-03T04:56:57;3.75;;;1.80;;
73693;SDS011;61997;53.974;11.670;2023-04-03T04:59:22;4.40;;;2.00;;
73693;SDS011;61997;53.974;11.670;2023-04-03T05:01:48;3.75;;;2.13;;
73693;SDS011;61997;53.974;11.670;2023-04-03T05:04:13;3.33;;;2.17;;
73693;SDS011;61997;53.974;11.670;2023-04-03T05:06:40;3.33;;;1.90;;
73693;SDS011;61997;53.974;11.670;2023-04-03T05:09:05;3.15;;;1.52;;
73693;SDS011;61997;53.974;11.670;2023-04-03T05:11:31;3.42;;;1.50;;
73693;SDS011;61997;53.974;11.670;2023-04-03T05:13:57;2.78;;;1.58;;
73693;SDS011;61997;53.974;11.670;2023-04-03T05:16:22;3.13;;;1.50;;
73693;SDS011;61997;53.974;11.670;2023-04-03T05:18:48;3.17;;;2.00;;
73693;SDS011;61997;53.974;11.670;2023-04-03T05:21:13;3.03;;;1.58;;
73693;SDS011;61997;53.974;11.670;2023-04-03T05:23:38;2.88;;;1.67;;
73693;SDS011;61997;53.974;11.670;2023-04-03T05:26:04;2.97;;;1.63;;
73693;SDS011;61997;53.974;11.670;2023-04-03T05:28:30;3.33;;;1.70;;
73693;SDS011;61997;53.974;11.670;2023-04-03T05:30:56;3.47;;;1.88;;
73693;SDS011;61997;53.974;11.670;2023-04-03T05:33:23;2.10;;;1.52;;
73693;SDS011;61997;53.974;11.670;2023-04-03T05:35:48;3.58;;;1.65;;
73693;SDS011;61997;53.974;11.670;2023-04-03T05:38:14;2.10;;;1.40;;
73693;SDS011;61997;53.974;11.670;2023-04-03T05:40:40;2.33;;;1.27;;
73693;SDS011;61997;53.974;11.670;2023-04-03T05:43:06;3.25;;;1.50;;
73693;SDS011;61997;53.974;11.670;2023-04-03T05:45:31;3.30;;;1.60;;
73693;SDS011;61997;53.974;11.670;2023-04-03T05:47:57;3.03;;;1.25;;
73693;SDS011;61997;53.974;11.670;2023-04-03T05:50:22;2.65;;;1.30;;
73693;SDS011;61997;53.974;11.670;2023-04-03T05:52:48;2.72;;;1.10;;
73693;SDS011;61997;53.974;11.670;2023-04-03T05:55:14;2.58;;;1.40;;
73693;SDS011;61997;53.974;11.670;2023-04-03T05:57:40;3.25;;;1.50;;
73693;SDS011;61997;53.974;11.670;2023-04-03T06:00:06;3.22;;;1.55;;
73693;SDS011;61997;53.974;11.670;2023-04-03T06:02:34;2.15;;;1.35;;
73693;SDS011;61997;53.974;11.670;2023-04-03T06:05:01;2.67;;;1.42;;
73693;SDS011;61997;53.974;11.670;2023-04-03T06:07:27;3.13;;;1.55;;
73693;SDS011;61997;53.974;11.670;2023-04-03T06:09:53;4.32;;;2.10;;
73693;SDS011;61997;53.974;11.670;2023-04-03T06:12:20;3.45;;;1.38;;
73693;SDS011;61997;53.974;11.670;2023-04-03T06:14:46;3.40;;;1.75;;
73693;SDS011;61997;53.974;11.670;2023-04-03T06:17:12;3.10;;;1.70;;
73693;SDS011;61997;53.974;11.670;2023-04-03T06:19:38;2.65;;;1.50;;
73693;SDS011;61997;53.974;11.670;2023-04-03T06:22:03;2.90;;;1.45;;
73693;SDS011;61997;53.974;11.670;2023-04-03T06:24:29;3.40;;;1.70;;
73693;SDS011;61997;53.974;11.670;2023-04-03T06:26:56;3.00;;;1.48;;
73693;SDS011;61997;53.974;11.670;2023-04-03T06:29:22;2.90;;;1.60;;
73693;SDS011;61997;53.974;11.670;2023-04-03T06:31:48;2.75;;;1.92;;
73693;SDS011;61997;53.974;11.670;2023-04-03T06:34:13;4.13;;;1.63;;
73693;SDS011;61997;53.974;11.670;2023-04-03T06:36:40;3.20;;;1.65;;
73693;SDS011;61997;53.974;11.670;2023-04-03T06:39:08;3.85;;;1.75;;
73693;SDS011;61997;53.974;11.670;2023-04-03T06:41:36;2.33;;;1.50;;
73693;SDS011;61997;53.974;11.670;2023-04-03T06:44:01;3.65;;;1.60;;
73693;SDS011;61997;53.974;11.670;2023-04-03T06:46:28;4.10;;;1.98;;
73693;SDS011;61997;53.974;11.670;2023-04-03T06:48:53;4.53;;;2.17;;
73693;SDS011;61997;53.974;11.670;2023-04-03T06:53:52;4.22;;;1.75;;
73693;SDS011;61997;53.974;11.670;2023-04-03T06:56:19;4.88;;;2.10;;
73693;SDS011;61997;53.974;11.670;2023-04-03T06:58:45;4.05;;;1.80;;
73693;SDS011;61997;53.974;11.670;2023-04-03T07:01:12;4.22;;;2.10;;
73693;SDS011;61997;53.974;11.670;2023-04-03T07:03:38;3.38;;;1.60;;
73693;SDS011;61997;53.974;11.670;2023-04-03T07:06:05;5.28;;;2.03;;
73693;SDS011;61997;53.974;11.670;2023-04-03T07:08:32;4.35;;;2.30;;
73693;SDS011;61997;53.974;11.670;2023-04-03T07:10:58;2.97;;;1.60;;
73693;SDS011;61997;53.974;11.670;2023-04-03T07:13:23;2.85;;;1.77;;
73693;SDS011;61997;53.974;11.670;2023-04-03T07:15:49;3.75;;;1.77;;
73693;SDS011;61997;53.974;11.670;2023-04-03T07:18:15;3.55;;;1.55;;
73693;SDS011;61997;53.974;11.670;2023-04-03T07:20:42;3.72;;;1.83;;
73693;SDS011;61997;53.974;11.670;2023-04-03T07:23:07;4.20;;;1.83;;
73693;SDS011;61997;53.974;11.670;2023-04-03T07:25:33;3.83;;;1.77;;
73693;SDS011;61997;53.974;11.670;2023-04-03T07:27:58;2.92;;;1.60;;
73693;SDS011;61997;53.974;11.670;2023-04-03T07:30:24;3.53;;;1.80;;
73693;SDS011;61997;53.974;11.670;2023-04-03T07:32:50;4.28;;;1.80;;
73693;SDS011;61997;53.974;11.670;2023-04-03T07:35:16;3.53;;;1.70;;
73693;SDS011;61997;53.974;11.670;2023-04-03T07:37:42;3.67;;;1.67;;
73693;SDS011;61997;53.974;11.670;2023-04-03T07:40:07;3.33;;;1.77;;
73693;SDS011;61997;53.974;11.670;2023-04-03T07:42:33;2.15;;;1.20;;
73693;SDS011;61997;53.974;11.670;2023-04-03T07:45:00;3.88;;;1.60;;
73693;SDS011;61997;53.974;11.670;2023-04-03T07:47:26;3.10;;;1.60;;
73693;SDS011;61997;53.974;11.670;2023-04-03T07:49:52;3.90;;;1.50;;
73693;SDS011;61997;53.974;11.670;2023-04-03T07:52:17;2.55;;;1.33;;
73693;SDS011;61997;53.974;11.670;2023-04-03T07:54:43;2.47;;;1.23;;
73693;SDS011;61997;53.974;11.670;2023-04-03T07:57:08;2.80;;;1.00;;
73693;SDS011;61997;53.974;11.670;2023-04-03T07:59:33;3.05;;;1.50;;
73693;SDS011;61997;53.974;11.670;2023-04-03T08:01:59;2.30;;;1.40;;
73693;SDS011;61997;53.974;11.670;2023-04-03T08:04:24;3.58;;;1.33;;
73693;SDS011;61997;53.974;11.670;2023-04-03T08:06:51;2.72;;;1.40;;
73693;SDS011;61997;53.974;11.670;2023-04-03T08:09:16;2.47;;;1.42;;
73693;SDS011;61997;53.974;11.670;2023-04-03T08:11:42;4.05;;;1.38;;
73693;SDS011;61997;53.974;11.670;2023-04-03T08:14:08;3.28;;;1.25;;
73693;SDS011;61997;53.974;11.670;2023-04-03T08:16:36;2.10;;;1.20;;
73693;SDS011;61997;53.974;11.670;2023-04-03T08:19:01;2.17;;;1.00;;
73693;SDS011;61997;53.974;11.670;2023-04-03T08:21:27;2.13;;;1.23;;
73693;SDS011;61997;53.974;11.670;2023-04-03T08:23:52;1.75;;;1.08;;
73693;SDS011;61997;53.974;11.670;2023-04-03T08:26:19;2.10;;;0.90;;
73693;SDS011;61997;53.974;11.670;2023-04-03T08:28:46;2.85;;;1.20;;
73693;SDS011;61997;53.974;11.670;2023-04-03T08:31:14;3.97;;;1.30;;
73693;SDS011;61997;53.974;11.670;2023-04-03T08:33:40;2.05;;;1.35;;
73693;SDS011;61997;53.974;11.670;2023-04-03T08:36:07;2.53;;;1.10;;
73693;SDS011;61997;53.974;11.670;2023-04-03T08:38:40;3.28;;;1.13;;
73693;SDS011;61997;53.974;11.670;2023-04-03T08:46:35;2.22;;;0.93;;
73693;SDS011;61997;53.974;11.670;2023-04-03T08:49:35;2.10;;;0.90;;
73693;SDS011;61997;53.974;11.670;2023-04-03T08:52:09;2.95;;;1.42;;
73693;SDS011;61997;53.974;11.670;2023-04-03T08:57:25;2.50;;;1.30;;
73693;SDS011;61997;53.974;11.670;2023-04-03T08:59:55;1.98;;;1.00;;
73693;SDS011;61997;53.974;11.670;2023-04-03T09:02:43;1.70;;;0.85;;
73693;SDS011;61997;53.974;11.670;2023-04-03T09:05:13;2.70;;;0.80;;
73693;SDS011;61997;53.974;11.670;2023-04-03T09:07:43;1.90;;;1.00;;
73693;SDS011;61997;53.974;11.670;2023-04-03T09:10:14;2.83;;;0.95;;
73693;SDS011;61997;53.974;11.670;2023-04-03T09:12:53;2.28;;;0.95;;
73693;SDS011;61997;53.974;11.670;2023-04-03T09:15:25;2.13;;;0.73;;
73693;SDS011;61997;53.974;11.670;2023-04-03T09:20:49;1.60;;;0.75;;
73693;SDS011;61997;53.974;11.670;2023-04-03T09:23:44;2.00;;;0.80;;
73693;SDS011;61997;53.974;11.670;2023-04-03T09:26:23;2.05;;;0.93;;
73693;SDS011;61997;53.974;11.670;2023-04-03T09:28:54;1.98;;;0.88;;
73693;SDS011;61997;53.974;11.670;2023-04-03T09:31:36;2.03;;;0.90;;
73693;SDS011;61997;53.974;11.670;2023-04-03T09:34:06;1.33;;;0.55;;
73693;SDS011;61997;53.974;11.670;2023-04-03T09:36:40;1.27;;;0.70;;
73693;SDS011;61997;53.974;11.670;2023-04-03T09:39:15;2.10;;;0.55;;
73693;SDS011;61997;53.974;11.670;2023-04-03T09:41:54;2.13;;;0.73;;
73693;SDS011;61997;53.974;11.670;2023-04-03T09:44:23;2.17;;;0.73;;
73693;SDS011;61997;53.974;11.670;2023-04-03T09:46:55;2.65;;;1.10;;
73693;SDS011;61997;53.974;11.670;2023-04-03T09:49:20;1.65;;;0.70;;
73693;SDS011;61997;53.974;11.670;2023-04-03T09:51:46;1.30;;;0.90;;
73693;SDS011;61997;53.974;11.670;2023-04-03T09:54:25;2.33;;;0.80;;
73693;SDS011;61997;53.974;11.670;2023-04-03T09:56:56;1.23;;;0.63;;
73693;SDS011;61997;53.974;11.670;2023-04-03T09:59:27;1.40;;;0.88;;
73693;SDS011;61997;53.974;11.670;2023-04-03T10:02:03;2.10;;;0.90;;
73693;SDS011;61997;53.974;11.670;2023-04-03T10:04:42;2.70;;;0.80;;
73693;SDS011;61997;53.974;11.670;2023-04-03T10:10:15;1.30;;;0.75;;
73693;SDS011;61997;53.974;11.670;2023-04-03T10:12:45;1.92;;;0.80;;
73693;SDS011;61997;53.974;11.670;2023-04-03T10:15:11;1.15;;;0.60;;
73693;SDS011;61997;53.974;11.670;2023-04-03T10:20:38;1.23;;;0.55;;
73693;SDS011;61997;53.974;11.670;2023-04-03T10:28:22;1.20;;;0.70;;
73693;SDS011;61997;53.974;11.670;2023-04-03T10:31:15;1.77;;;0.70;;
73693;SDS011;61997;53.974;11.670;2023-04-03T10:36:22;1.27;;;0.75;;
73693;SDS011;61997;53.974;11.670;2023-04-03T10:38:59;1.42;;;0.60;;
73693;SDS011;61997;53.974;11.670;2023-04-03T10:54:59;2.78;;;1.08;;
73693;SDS011;61997;53.974;11.670;2023-04-03T10:57:30;1.42;;;0.60;;
73693;SDS011;61997;53.974;11.670;2023-04-03T10:59:59;2.20;;;0.70;;
73693;SDS011;61997;53.974;11.670;2023-04-03T11:02:29;2.42;;;0.80;;
73693;SDS011;61997;53.974;11.670;2023-04-03T11:04:59;0.93;;;0.50;;
73693;SDS011;61997;53.974;11.670;2023-04-03T11:07:34;3.20;;;1.30;;
73693;SDS011;61997;53.974;11.670;2023-04-03T11:10:08;1.83;;;0.70;;
73693;SDS011;61997;53.974;11.670;2023-04-03T11:15:11;1.83;;;0.80;;
73693;SDS011;61997;53.974;11.670;2023-04-03T11:17:39;1.88;;;0.90;;
73693;SDS011;61997;53.974;11.670;2023-04-03T11:20:16;1.50;;;0.80;;
73693;SDS011;61997;53.974;11.670;2023-04-03T11:22:53;1.83;;;0.60;;
73693;SDS011;61997;53.974;11.670;2023-04-03T11:25:24;1.58;;;0.68;;
73693;SDS011;61997;53.974;11.670;2023-04-03T11:30:31;1.65;;;0.80;;
73693;SDS011;61997;53.974;11.670;2023-04-03T11:36:12;3.45;;;1.05;;
73693;SDS011;61997;53.974;11.670;2023-04-03T11:38:43;2.00;;;0.68;;
73693;SDS011;61997;53.974;11.670;2023-04-03T11:41:13;1.70;;;0.75;;
73693;SDS011;61997;53.974;11.670;2023-04-03T11:46:34;2.08;;;0.80;;
73693;SDS011;61997;53.974;11.670;2023-04-03T11:57:49;1.20;;;0.73;;
73693;SDS011;61997;53.974;11.670;2023-04-03T12:08:26;3.08;;;1.05;;
73693;SDS011;61997;53.974;11.670;2023-04-03T12:16:29;2.22;;;0.93;;
73693;SDS011;61997;53.974;11.670;2023-04-03T12:19:01;2.38;;;0.70;;
73693;SDS011;61997;53.974;11.670;2023-04-03T12:37:04;3.10;;;1.05;;
73693;SDS011;61997;53.974;11.670;2023-04-03T12:39:44;2.45;;;0.95;;
73693;SDS011;61997;53.974;11.670;2023-04-03T12:47:27;3.92;;;1.63;;
73693;SDS011;61997;53.974;11.670;2023-04-03T12:50:01;6.07;;;2.33;;
73693;SDS011;61997;53.974;11.670;2023-04-03T12:52:37;3.22;;;1.88;;
73693;SDS011;61997;53.974;11.670;2023-04-03T12:55:19;4.60;;;1.58;;
73693;SDS011;61997;53.974;11.670;2023-04-03T12:57:45;4.95;;;2.28;;
73693;SDS011;61997;53.974;11.670;2023-04-03T13:00:18;5.50;;;1.85;;
73693;SDS011;61997;53.974;11.670;2023-04-03T13:02:46;3.83;;;2.00;;
73693;SDS011;61997;53.974;11.670;2023-04-03T13:05:15;3.58;;;1.67;;
73693;SDS011;61997;53.974;11.670;2023-04-03T13:07:43;3.15;;;1.77;;
73693;SDS011;61997;53.974;11.670;2023-04-03T13:15:16;3.85;;;1.90;;
73693;SDS011;61997;53.974;11.670;2023-04-03T13:17:46;3.78;;;1.80;;
73693;SDS011;61997;53.974;11.670;2023-04-03T13:20:16;4.22;;;2.40;;
73693;SDS011;61997;53.974;11.670;2023-04-03T13:23:00;4.82;;;2.10;;
73693;SDS011;61997;53.974;11.670;2023-04-03T13:25:30;3.22;;;1.70;;
73693;SDS011;61997;53.974;11.670;2023-04-03T13:27:59;4.65;;;2.10;;
73693;SDS011;61997;53.974;11.670;2023-04-03T13:30:30;5.07;;;2.15;;
73693;SDS011;61997;53.974;11.670;2023-04-03T13:32:59;3.22;;;1.60;;
73693;SDS011;61997;53.974;11.670;2023-04-03T13:37:54;4.40;;;2.15;;
73693;SDS011;61997;53.974;11.670;2023-04-03T13:40:21;4.95;;;2.50;;
73693;SDS011;61997;53.974;11.670;2023-04-03T13:42:57;5.15;;;2.30;;
73693;SDS011;61997;53.974;11.670;2023-04-03T13:45:25;4.85;;;2.47;;
73693;SDS011;61997;53.974;11.670;2023-04-03T13:48:15;5.20;;;2.63;;
73693;SDS011;61997;53.974;11.670;2023-04-03T13:53:22;5.60;;;2.22;;
73693;SDS011;61997;53.974;11.670;2023-04-03T13:55:59;6.28;;;2.63;;
73693;SDS011;61997;53.974;11.670;2023-04-03T13:58:28;4.53;;;2.53;;
73693;SDS011;61997;53.974;11.670;2023-04-03T14:00:58;4.57;;;2.65;;
73693;SDS011;61997;53.974;11.670;2023-04-03T14:03:54;4.57;;;2.05;;
73693;SDS011;61997;53.974;11.670;2023-04-03T14:06:24;5.43;;;2.33;;
73693;SDS011;61997;53.974;11.670;2023-04-03T14:08:50;4.72;;;2.50;;
73693;SDS011;61997;53.974;11.670;2023-04-03T14:11:21;5.70;;;2.58;;
73693;SDS011;61997;53.974;11.670;2023-04-03T14:13:52;4.97;;;2.67;;
73693;SDS011;61997;53.974;11.670;2023-04-03T14:16:19;4.78;;;2.05;;
73693;SDS011;61997;53.974;11.670;2023-04-03T14:18:50;5.72;;;2.10;;
73693;SDS011;61997;53.974;11.670;2023-04-03T14:21:17;4.43;;;2.40;;
73693;SDS011;61997;53.974;11.670;2023-04-03T14:23:43;4.45;;;2.30;;
73693;SDS011;61997;53.974;11.670;2023-04-03T14:26:13;4.78;;;2.30;;
73693;SDS011;61997;53.974;11.670;2023-04-03T14:28:41;4.85;;;2.28;;
73693;SDS011;61997;53.974;11.670;2023-04-03T14:31:07;4.93;;;2.03;;
73693;SDS011;61997;53.974;11.670;2023-04-03T14:33:32;4.10;;;1.90;;
73693;SDS011;61997;53.974;11.670;2023-04-03T14:36:00;4.05;;;1.70;;
73693;SDS011;61997;53.974;11.670;2023-04-03T14:38:29;3.45;;;1.98;;
73693;SDS011;61997;53.974;11.670;2023-04-03T14:40:55;4.55;;;1.98;;
73693;SDS011;61997;53.974;11.670;2023-04-03T14:43:21;4.82;;;2.40;;
73693;SDS011;61997;53.974;11.670;2023-04-03T14:45:48;4.03;;;1.98;;
73693;SDS011;61997;53.974;11.670;2023-04-03T14:48:21;4.07;;;2.22;;
73693;SDS011;61997;53.974;11.670;2023-04-03T14:50:48;3.63;;;1.85;;
73693;SDS011;61997;53.974;11.670;2023-04-03T14:53:14;4.90;;;1.98;;
73693;SDS011;61997;53.974;11.670;2023-04-03T14:55:42;4.63;;;2.10;;
73693;SDS011;61997;53.974;11.670;2023-04-03T15:00:37;3.15;;;2.00;;
73693;SDS011;61997;53.974;11.670;2023-04-03T15:03:02;2.78;;;1.75;;
73693;SDS011;61997;53.974;11.670;2023-04-03T15:05:28;3.35;;;1.90;;
73693;SDS011;61997;53.974;11.670;2023-04-03T15:07:54;3.00;;;2.15;;
73693;SDS011;61997;53.974;11.670;2023-04-03T15:10:21;5.47;;;1.95;;
73693;SDS011;61997;53.974;11.670;2023-04-03T15:12:48;3.80;;;1.85;;
73693;SDS011;61997;53.974;11.670;2023-04-03T15:15:15;3.45;;;1.90;;
73693;SDS011;61997;53.974;11.670;2023-04-03T15:17:42;4.63;;;1.77;;
73693;SDS011;61997;53.974;11.670;2023-04-03T15:20:15;3.97;;;2.20;;
73693;SDS011;61997;53.974;11.670;2023-04-03T15:22:45;5.13;;;1.90;;
73693;SDS011;61997;53.974;11.670;2023-04-03T15:25:11;5.22;;;2.00;;
73693;SDS011;61997;53.974;11.670;2023-04-03T15:27:37;4.00;;;2.08;;
73693;SDS011;61997;53.974;11.670;2023-04-03T15:30:03;3.60;;;1.73;;
73693;SDS011;61997;53.974;11.670;2023-04-03T15:32:29;3.15;;;1.52;;
73693;SDS011;61997;53.974;11.670;2023-04-03T15:34:55;4.05;;;1.83;;
73693;SDS011;61997;53.974;11.670;2023-04-03T15:37:21;2.90;;;1.75;;
73693;SDS011;61997;53.974;11.670;2023-04-03T15:39:46;4.05;;;1.75;;
73693;SDS011;61997;53.974;11.670;2023-04-03T15:42:12;3.08;;;1.85;;
73693;SDS011;61997;53.974;11.670;2023-04-03T15:44:37;5.45;;;1.65;;
73693;SDS011;61997;53.974;11.670;2023-04-03T15:47:03;2.70;;;1.33;;
73693;SDS011;61997;53.974;11.670;2023-04-03T15:49:28;2.53;;;1.50;;
73693;SDS011;61997;53.974;11.670;2023-04-03T15:51:54;2.90;;;1.60;;
73693;SDS011;61997;53.974;11.670;2023-04-03T15:54:19;3.55;;;1.40;;
73693;SDS011;61997;53.974;11.670;2023-04-03T15:56:45;2.55;;;1.40;;
73693;SDS011;61997;53.974;11.670;2023-04-03T15:59:10;3.00;;;1.30;;
73693;SDS011;61997;53.974;11.670;2023-04-03T16:01:36;4.25;;;1.52;;
73693;SDS011;61997;53.974;11.670;2023-04-03T16:04:02;2.55;;;1.30;;
73693;SDS011;61997;53.974;11.670;2023-04-03T16:06:28;2.97;;;1.20;;
73693;SDS011;61997;53.974;11.670;2023-04-03T16:08:58;3.08;;;1.42;;
73693;SDS011;61997;53.974;11.670;2023-04-03T16:11:24;3.22;;;1.65;;
73693;SDS011;61997;53.974;11.670;2023-04-03T16:13:51;2.60;;;1.52;;
73693;SDS011;61997;53.974;11.670;2023-04-03T16:16:16;3.38;;;1.42;;
73693;SDS011;61997;53.974;11.670;2023-04-03T16:18:41;2.75;;;1.50;;
73693;SDS011;61997;53.974;11.670;2023-04-03T16:21:12;2.90;;;1.70;;
73693;SDS011;61997;53.974;11.670;2023-04-03T16:23:38;2.80;;;1.58;;
73693;SDS011;61997;53.974;11.670;2023-04-03T16:26:04;3.65;;;1.42;;
73693;SDS011;61997;53.974;11.670;2023-04-03T16:28:29;2.90;;;1.30;;
73693;SDS011;61997;53.974;11.670;2023-04-03T16:30:55;2.22;;;1.08;;
73693;SDS011;61997;53.974;11.670;2023-04-03T16:33:20;2.30;;;1.30;;